createdAt,value
2023-01-10T00:01:15.911Z,8.32
2023-01-10T00:06:19.256Z,7.80
2023-01-10T00:11:43.142Z,7.05
2023-01-10T00:16:47.253Z,6.47
2023-01-10T00:21:51.922Z,6.20
2023-01-10T00:26:55.779Z,6.13
2023-01-10T00:31:59.741Z,19.48
2023-01-10T00:37:04.078Z,7.85
2023-01-10T00:42:26.130Z,6.95
2023-01-10T00:52:34.441Z,6.70
2023-01-10T00:57:39.311Z,6.90
2023-01-10T01:02:44.008Z,4.00
2023-01-10T01:07:51.164Z,4.63
2023-01-10T01:13:01.215Z,6.57
2023-01-10T01:18:07.269Z,7.38
2023-01-10T01:23:11.363Z,7.57
2023-01-10T01:28:15.474Z,11.63
2023-01-10T01:33:20.362Z,15.57
2023-01-10T01:38:24.564Z,9.90
2023-01-10T01:43:32.306Z,8.18
2023-01-10T01:48:44.085Z,6.85
2023-01-10T01:53:56.964Z,6.65
2023-01-10T01:59:06.672Z,6.82
2023-01-10T02:04:23.598Z,6.43
2023-01-10T02:09:37.130Z,9.68
2023-01-10T02:14:43.848Z,6.75
2023-01-10T02:19:59.683Z,4.82
2023-01-10T02:25:42.604Z,6.85
2023-01-10T02:31:24.466Z,5.05
2023-01-10T02:36:49.991Z,5.07
2023-01-10T02:42:03.292Z,8.48
2023-01-10T02:47:09.673Z,6.45
2023-01-10T02:52:20.734Z,4.13
2023-01-10T02:58:11.862Z,3.75
2023-01-10T03:03:34.067Z,7.38
2023-01-10T03:08:49.512Z,10.30
2023-01-10T03:14:03.085Z,14.07
2023-01-10T03:19:18.142Z,15.30
2023-01-10T03:24:29.840Z,10.25
2023-01-10T03:29:46.799Z,12.77
2023-01-10T03:34:51.190Z,14.40
2023-01-10T03:40:07.572Z,17.23
2023-01-10T03:45:17.133Z,17.00
2023-01-10T03:50:24.635Z,21.17
2023-01-10T03:55:30.276Z,17.40
2023-01-10T04:00:34.820Z,11.30
2023-01-10T04:05:39.049Z,15.43
2023-01-10T04:10:43.808Z,13.88
2023-01-10T04:15:48.280Z,12.18
2023-01-10T04:20:53.243Z,15.65
2023-01-10T04:25:58.710Z,18.80
2023-01-10T04:31:03.215Z,20.02
2023-01-10T04:36:08.055Z,20.83
2023-01-10T04:41:12.293Z,16.58
2023-01-10T04:46:17.566Z,21.08
2023-01-10T04:51:22.306Z,13.80
2023-01-10T04:56:26.822Z,21.23
2023-01-10T05:01:30.277Z,21.05
2023-01-10T05:06:34.563Z,15.00
2023-01-10T05:11:38.742Z,22.92
2023-01-10T05:16:42.979Z,15.90
2023-01-10T05:21:47.171Z,15.65
2023-01-10T05:26:51.033Z,20.08
2023-01-10T05:31:56.179Z,18.98
2023-01-10T05:37:00.404Z,21.48
2023-01-10T05:42:09.027Z,14.00
2023-01-10T05:47:13.602Z,23.38
2023-01-10T05:52:17.231Z,19.98
2023-01-10T05:57:22.687Z,17.67
2023-01-10T06:02:27.219Z,17.02
2023-01-10T06:07:32.484Z,13.45
2023-01-10T06:12:39.614Z,17.88
2023-01-10T06:17:44.796Z,14.90
2023-01-10T06:22:48.547Z,15.50
2023-01-10T06:27:53.191Z,19.40
2023-01-10T06:33:06.671Z,16.08
2023-01-10T06:38:11.149Z,12.85
2023-01-10T06:43:15.375Z,16.08
2023-01-10T06:48:23.040Z,14.35
2023-01-10T06:53:28.132Z,23.25
2023-01-10T06:58:33.223Z,15.38
2023-01-10T07:03:38.166Z,13.75
2023-01-10T07:08:45.049Z,11.30
2023-01-10T07:13:50.040Z,11.60
2023-01-10T07:18:53.877Z,13.43
2023-01-10T07:23:58.696Z,13.80
2023-01-10T07:29:04.378Z,17.65
2023-01-10T07:34:08.432Z,22.75
2023-01-10T07:39:12.641Z,22.55
2023-01-10T07:44:17.612Z,21.40
2023-01-10T07:49:22.367Z,35.28
2023-01-10T07:54:26.819Z,26.50
2023-01-10T07:59:31.115Z,36.50
2023-01-10T08:04:35.457Z,34.97
2023-01-10T08:09:40.893Z,27.42
2023-01-10T08:14:45.671Z,26.13
2023-01-10T08:19:50.016Z,35.10
2023-01-10T08:24:54.993Z,21.48
2023-01-10T08:29:59.294Z,29.35
2023-01-10T08:35:04.128Z,25.92
2023-01-10T08:40:10.608Z,19.15
2023-01-10T08:45:16.933Z,18.17
2023-01-10T08:50:21.160Z,19.52
2023-01-10T08:55:26.850Z,20.30
2023-01-10T09:00:31.998Z,14.88
2023-01-10T09:05:36.302Z,15.75
2023-01-10T09:10:40.293Z,15.57
2023-01-10T09:15:44.757Z,15.82
2023-01-10T09:20:51.097Z,14.70
2023-01-10T09:25:56.784Z,16.08
2023-01-10T09:31:01.571Z,12.85
2023-01-10T09:36:05.645Z,13.85
2023-01-10T09:41:28.470Z,11.40
2023-01-10T09:47:14.227Z,12.23
2023-01-10T09:52:42.084Z,12.38
2023-01-10T09:57:47.589Z,11.68
2023-01-10T10:02:54.176Z,11.18
2023-01-10T10:08:19.460Z,11.43
2023-01-10T10:13:50.941Z,10.52
2023-01-10T10:19:09.336Z,8.25
2023-01-10T10:24:25.066Z,9.50
2023-01-10T10:29:28.932Z,10.65
2023-01-10T10:34:48.955Z,9.73
2023-01-10T10:40:21.278Z,11.70
2023-01-10T10:45:41.830Z,11.18
2023-01-10T10:51:35.446Z,10.47
2023-01-10T10:56:39.113Z,10.45
2023-01-10T11:01:47.640Z,10.45
2023-01-10T11:06:53.305Z,8.95
2023-01-10T11:12:00.420Z,9.48
2023-01-10T11:17:23.202Z,7.05
2023-01-10T11:22:30.649Z,6.68
2023-01-10T11:27:46.475Z,7.93
2023-01-10T11:32:54.806Z,7.07
2023-01-10T11:38:19.822Z,5.57
2023-01-10T11:43:41.483Z,5.85
2023-01-10T11:54:20.713Z,5.63
2023-01-10T11:59:27.187Z,5.30
2023-01-10T12:04:42.265Z,8.75
2023-01-10T12:09:55.085Z,8.50
2023-01-10T12:15:03.095Z,5.10
